createdAt,value
2022-08-29T00:00:26.642Z,22.70
2022-08-29T00:01:30.388Z,22.68
2022-08-29T00:02:32.950Z,22.62
2022-08-29T00:03:36.595Z,22.62
2022-08-29T00:04:39.255Z,22.56
2022-08-29T00:05:42.012Z,22.53
2022-08-29T00:06:44.643Z,22.52
2022-08-29T00:07:46.732Z,22.66
2022-08-29T00:08:49.188Z,22.55
2022-08-29T00:09:51.258Z,22.50
2022-08-29T00:10:55.875Z,22.47
2022-08-29T00:11:58.595Z,22.48
2022-08-29T00:13:00.856Z,22.47
2022-08-29T00:14:03.442Z,22.46
2022-08-29T00:15:08.333Z,22.42
2022-08-29T00:16:10.546Z,22.42
2022-08-29T00:17:12.688Z,22.40
2022-08-29T00:18:17.376Z,22.38
2022-08-29T00:19:19.701Z,22.33
2022-08-29T00:20:34.110Z,22.32
2022-08-29T00:21:36.951Z,22.34
2022-08-29T00:22:39.444Z,22.31
2022-08-29T00:23:44.001Z,22.29
2022-08-29T00:24:46.257Z,22.26
2022-08-29T00:25:49.084Z,22.25
2022-08-29T00:26:51.190Z,22.25
2022-08-29T00:27:53.786Z,22.26
2022-08-29T00:28:56.146Z,22.22
2022-08-29T00:29:58.207Z,22.23
2022-08-29T00:31:00.330Z,22.24
2022-08-29T00:32:02.643Z,22.25
2022-08-29T00:33:05.018Z,22.19
2022-08-29T00:34:07.164Z,22.21
2022-08-29T00:35:23.547Z,22.21
2022-08-29T00:36:26.512Z,22.22
2022-08-29T00:37:32.967Z,22.21
2022-08-29T00:38:35.844Z,22.23
2022-08-29T00:39:40.323Z,22.22
2022-08-29T00:40:51.884Z,22.20
2022-08-29T00:41:54.348Z,22.18
2022-08-29T00:42:56.676Z,22.22
2022-08-29T00:43:58.789Z,22.11
2022-08-29T00:45:01.071Z,22.07
2022-08-29T00:46:23.331Z,22.09
2022-08-29T00:47:33.241Z,22.10
2022-08-29T00:48:38.540Z,22.07
2022-08-29T00:49:45.536Z,22.01
2022-08-29T00:50:52.816Z,22.00
2022-08-29T00:51:57.812Z,22.03
2022-08-29T00:53:01.935Z,22.03
2022-08-29T00:54:09.935Z,21.98
2022-08-29T00:55:17.223Z,21.97
2022-08-29T00:56:19.881Z,21.96
2022-08-29T00:57:23.883Z,22.01
2022-08-29T00:58:31.742Z,21.97
2022-08-29T00:59:39.668Z,21.99
2022-08-29T01:00:44.008Z,21.99
2022-08-29T01:01:46.767Z,21.96
2022-08-29T01:02:49.130Z,21.92
2022-08-29T01:03:52.492Z,21.93
2022-08-29T01:04:54.747Z,21.94
2022-08-29T01:05:57.139Z,21.93
2022-08-29T01:07:00.365Z,21.96
2022-08-29T01:08:05.343Z,21.92
2022-08-29T01:09:08.920Z,21.93
2022-08-29T01:10:32.503Z,21.88
2022-08-29T01:11:53.696Z,21.88
2022-08-29T01:12:55.742Z,21.85
2022-08-29T01:14:00.093Z,21.82
2022-08-29T01:15:07.692Z,21.79
2022-08-29T01:16:12.030Z,21.82
2022-08-29T01:17:26.049Z,21.76
2022-08-29T01:18:32.637Z,21.72
2022-08-29T01:19:55.176Z,21.74
2022-08-29T01:21:24.655Z,21.70
2022-08-29T01:22:57.046Z,21.69
2022-08-29T01:24:05.616Z,21.68
2022-08-29T01:25:14.056Z,21.66
2022-08-29T01:26:16.710Z,21.60
2022-08-29T01:27:22.120Z,21.60
2022-08-29T01:28:35.208Z,21.63
2022-08-29T01:29:37.622Z,21.60
2022-08-29T01:31:02.548Z,21.55
2022-08-29T01:32:05.651Z,21.56
2022-08-29T01:33:08.054Z,21.55
2022-08-29T01:34:13.278Z,21.57
2022-08-29T01:35:15.827Z,21.52
2022-08-29T01:36:23.123Z,21.51
2022-08-29T01:37:31.266Z,21.52
2022-08-29T01:38:33.895Z,21.55
2022-08-29T01:39:39.071Z,21.55
2022-08-29T01:40:41.436Z,21.55
2022-08-29T01:41:43.844Z,21.49
2022-08-29T01:42:46.815Z,21.45
2022-08-29T01:43:52.395Z,21.49
2022-08-29T01:44:59.645Z,21.50
2022-08-29T01:46:01.754Z,21.50
2022-08-29T01:47:07.585Z,21.51
2022-08-29T01:48:09.669Z,21.52
2022-08-29T01:49:13.316Z,21.49
2022-08-29T01:50:15.976Z,21.55
2022-08-29T01:51:18.430Z,21.50
2022-08-29T01:52:21.355Z,21.53
2022-08-29T01:53:25.778Z,21.51
2022-08-29T01:54:28.695Z,21.48
2022-08-29T01:55:30.947Z,21.49
2022-08-29T01:56:35.240Z,21.54
2022-08-29T01:57:39.430Z,21.44
2022-08-29T01:58:42.928Z,21.32
2022-08-29T01:59:45.408Z,21.38
2022-08-29T02:00:47.610Z,21.34
2022-08-29T02:01:57.400Z,21.31
2022-08-29T02:03:01.413Z,21.40
2022-08-29T02:04:05.260Z,21.29
2022-08-29T02:05:07.627Z,21.30
2022-08-29T02:06:10.565Z,21.31
2022-08-29T02:07:13.031Z,21.36
2022-08-29T02:08:15.726Z,21.31
2022-08-29T02:09:17.979Z,21.30
2022-08-29T02:10:20.189Z,21.26
2022-08-29T02:11:23.397Z,21.25
2022-08-29T02:12:25.631Z,21.22
2022-08-29T02:13:28.434Z,21.22
2022-08-29T02:14:30.760Z,21.22
2022-08-29T02:15:33.093Z,21.19
2022-08-29T02:16:35.926Z,21.15
2022-08-29T02:17:38.706Z,21.17
2022-08-29T02:18:43.563Z,21.14
2022-08-29T02:19:46.183Z,21.17
2022-08-29T02:20:48.415Z,21.15
2022-08-29T02:21:50.890Z,21.14
2022-08-29T02:22:53.013Z,21.10
2022-08-29T02:23:57.763Z,21.12
2022-08-29T02:24:59.784Z,21.15
2022-08-29T02:26:02.044Z,21.26
2022-08-29T02:27:09.541Z,21.29
2022-08-29T02:28:13.698Z,21.30
2022-08-29T02:29:15.980Z,21.24
2022-08-29T02:30:19.857Z,21.23
2022-08-29T02:31:24.356Z,21.18
2022-08-29T02:32:26.718Z,21.19
2022-08-29T02:33:29.973Z,21.13
2022-08-29T02:34:36.665Z,21.10
2022-08-29T02:35:42.882Z,21.19
2022-08-29T02:36:45.378Z,21.33
2022-08-29T02:37:51.194Z,21.18
2022-08-29T02:38:54.192Z,21.15
2022-08-29T02:39:56.302Z,21.23
2022-08-29T02:41:01.310Z,21.28
2022-08-29T02:42:06.207Z,21.32
2022-08-29T02:43:08.835Z,21.32
2022-08-29T02:44:12.900Z,21.23
2022-08-29T02:45:15.118Z,21.21
2022-08-29T02:46:19.196Z,21.28
2022-08-29T02:47:21.458Z,21.17
2022-08-29T02:48:23.786Z,21.16
2022-08-29T02:49:25.960Z,21.15
2022-08-29T02:50:28.255Z,21.15
2022-08-29T02:51:32.549Z,21.22
2022-08-29T02:52:37.304Z,21.15
2022-08-29T02:53:39.640Z,21.18
2022-08-29T02:54:42.617Z,21.19
2022-08-29T02:55:47.244Z,21.22
2022-08-29T02:56:49.605Z,21.14
2022-08-29T02:57:53.249Z,21.19
2022-08-29T02:58:56.794Z,21.10
2022-08-29T02:59:58.855Z,21.13
2022-08-29T03:01:00.972Z,21.17
2022-08-29T03:02:12.034Z,21.00
2022-08-29T03:03:14.466Z,21.08
2022-08-29T03:04:18.031Z,21.18
2022-08-29T03:05:27.831Z,21.15
2022-08-29T03:06:29.927Z,21.09
2022-08-29T03:07:34.351Z,21.10
2022-08-29T03:08:38.357Z,21.13
2022-08-29T03:09:43.419Z,21.25
2022-08-29T03:10:48.021Z,21.24
2022-08-29T03:11:52.797Z,21.25
2022-08-29T03:12:55.595Z,21.26
2022-08-29T03:13:58.130Z,21.11
2022-08-29T03:15:00.548Z,21.23
2022-08-29T03:16:03.737Z,21.39
2022-08-29T03:17:08.903Z,21.27
2022-08-29T03:18:11.961Z,21.37
2022-08-29T03:19:14.002Z,21.32
2022-08-29T03:20:18.979Z,21.23
2022-08-29T03:21:23.851Z,21.28
2022-08-29T03:22:26.474Z,21.42
2022-08-29T03:23:28.775Z,21.38
2022-08-29T03:24:30.947Z,21.44
2022-08-29T03:25:33.088Z,21.39
2022-08-29T03:26:37.500Z,21.33
2022-08-29T03:27:43.550Z,21.33
2022-08-29T03:28:45.830Z,21.36
2022-08-29T03:29:47.884Z,21.39
2022-08-29T03:30:50.023Z,21.33
2022-08-29T03:31:52.088Z,21.48
2022-08-29T03:32:54.847Z,21.49
2022-08-29T03:33:57.279Z,21.27
2022-08-29T03:34:59.531Z,21.53
2022-08-29T03:36:02.065Z,21.42
2022-08-29T03:37:06.888Z,21.40
2022-08-29T03:38:11.694Z,21.26
2022-08-29T03:39:14.019Z,21.33
2022-08-29T03:40:17.000Z,21.31
2022-08-29T03:41:22.789Z,21.38
2022-08-29T03:42:24.938Z,21.40
2022-08-29T03:43:27.086Z,21.47
2022-08-29T03:44:29.154Z,21.39
2022-08-29T03:45:31.404Z,21.43
2022-08-29T03:46:33.586Z,21.48
2022-08-29T03:47:36.130Z,21.42
2022-08-29T03:48:38.288Z,21.69
2022-08-29T03:49:40.528Z,21.61
2022-08-29T03:50:43.400Z,21.69
2022-08-29T03:51:45.555Z,21.86
2022-08-29T03:52:48.446Z,22.02
2022-08-29T03:53:50.575Z,22.15
2022-08-29T03:54:53.424Z,22.22
2022-08-29T03:55:57.737Z,22.32
2022-08-29T03:56:59.822Z,22.13
2022-08-29T03:58:02.043Z,22.25
2022-08-29T03:59:04.566Z,22.30
2022-08-29T04:00:17.099Z,22.23
2022-08-29T04:01:28.834Z,22.27
2022-08-29T04:02:30.945Z,22.17
2022-08-29T04:03:33.052Z,21.96
2022-08-29T04:04:54.151Z,22.04
2022-08-29T04:05:56.271Z,21.99
2022-08-29T04:06:58.901Z,21.88
2022-08-29T04:08:01.148Z,22.06
2022-08-29T04:09:03.241Z,21.88
2022-08-29T04:10:08.376Z,22.06
2022-08-29T04:11:11.923Z,21.90
2022-08-29T04:12:14.379Z,21.88
2022-08-29T04:13:17.151Z,22.07
2022-08-29T04:14:21.540Z,22.07
2022-08-29T04:15:25.228Z,22.12
2022-08-29T04:16:31.348Z,22.16
2022-08-29T04:17:34.338Z,22.07
2022-08-29T04:18:36.666Z,22.10
2022-08-29T04:19:39.869Z,21.87
2022-08-29T04:20:46.059Z,21.94
2022-08-29T04:21:49.154Z,21.92
2022-08-29T04:22:52.339Z,21.96
2022-08-29T04:23:55.104Z,21.98
2022-08-29T04:24:57.305Z,21.99
2022-08-29T04:26:19.134Z,22.04
2022-08-29T04:27:21.750Z,22.12
2022-08-29T04:28:26.668Z,22.19
2022-08-29T04:29:34.698Z,22.57
2022-08-29T04:30:38.517Z,22.99
2022-08-29T04:31:42.546Z,23.26
2022-08-29T04:32:45.221Z,23.40
2022-08-29T04:33:48.932Z,23.61
2022-08-29T04:34:50.929Z,23.79
2022-08-29T04:35:53.425Z,23.81
2022-08-29T04:36:55.547Z,24.14
2022-08-29T04:37:57.869Z,23.82
2022-08-29T04:39:00.145Z,23.96
2022-08-29T04:40:02.668Z,24.41
2022-08-29T04:41:07.005Z,24.38
2022-08-29T04:42:09.166Z,24.56
2022-08-29T04:43:12.737Z,24.53
2022-08-29T04:44:14.857Z,24.43
2022-08-29T04:45:20.837Z,24.48
2022-08-29T04:46:26.208Z,24.31
2022-08-29T04:47:28.357Z,24.43
2022-08-29T04:48:30.436Z,24.67
2022-08-29T04:49:32.579Z,24.24
2022-08-29T04:50:34.819Z,24.32
2022-08-29T04:51:37.215Z,24.07
2022-08-29T04:52:39.488Z,24.31
2022-08-29T04:53:42.978Z,24.14
2022-08-29T04:54:45.306Z,24.19
2022-08-29T04:55:58.317Z,24.10
2022-08-29T04:57:03.420Z,23.75
2022-08-29T04:58:07.166Z,23.87
2022-08-29T04:59:13.180Z,23.75
2022-08-29T05:00:19.749Z,23.75
2022-08-29T05:01:24.457Z,23.73
2022-08-29T05:02:27.724Z,23.60
2022-08-29T05:03:34.684Z,23.71
2022-08-29T05:04:36.701Z,23.57
2022-08-29T05:05:40.080Z,23.56
2022-08-29T05:06:44.836Z,23.57
2022-08-29T05:07:47.201Z,23.34
2022-08-29T05:08:58.889Z,23.46
2022-08-29T05:10:11.995Z,23.34
2022-08-29T05:11:22.650Z,23.36
2022-08-29T05:12:30.138Z,23.36
2022-08-29T05:13:32.452Z,23.39
2022-08-29T05:14:36.911Z,23.41
2022-08-29T05:15:39.550Z,23.31
2022-08-29T05:16:42.968Z,23.45
2022-08-29T05:17:45.462Z,23.55
2022-08-29T05:18:47.960Z,23.40
2022-08-29T05:19:50.768Z,23.42
2022-08-29T05:20:52.855Z,23.51
2022-08-29T05:21:58.154Z,23.71
2022-08-29T05:23:00.643Z,23.83
2022-08-29T05:24:09.295Z,23.57
2022-08-29T05:25:17.993Z,23.39
2022-08-29T05:26:22.455Z,23.16
2022-08-29T05:27:25.007Z,23.22
2022-08-29T05:28:30.907Z,23.17
2022-08-29T05:29:33.440Z,23.14
2022-08-29T05:30:38.156Z,23.16
2022-08-29T05:31:44.366Z,23.13
2022-08-29T05:32:47.690Z,23.08
2022-08-29T05:33:53.425Z,22.95
2022-08-29T05:34:56.268Z,23.17
2022-08-29T05:35:59.076Z,23.12
2022-08-29T05:37:02.477Z,23.08
2022-08-29T05:38:09.176Z,23.06
2022-08-29T05:39:11.563Z,23.07
2022-08-29T05:40:16.591Z,23.20
2022-08-29T05:41:19.309Z,23.12
2022-08-29T05:42:23.072Z,23.34
2022-08-29T05:43:25.438Z,23.85
2022-08-29T05:44:34.319Z,24.75
2022-08-29T05:45:38.463Z,25.32
2022-08-29T05:46:40.778Z,25.10
2022-08-29T05:47:43.134Z,25.16
2022-08-29T05:48:45.935Z,25.12
2022-08-29T05:49:49.134Z,25.08
2022-08-29T05:50:51.290Z,25.25
2022-08-29T05:51:55.311Z,25.65
2022-08-29T05:52:57.689Z,25.89
2022-08-29T05:54:00.020Z,25.64
2022-08-29T05:55:02.212Z,25.57
2022-08-29T05:56:04.348Z,25.51
2022-08-29T05:57:08.532Z,25.41
2022-08-29T05:58:12.407Z,25.08
2022-08-29T05:59:16.246Z,24.93
2022-08-29T06:00:18.698Z,24.94
2022-08-29T06:01:26.304Z,25.05
2022-08-29T06:02:29.007Z,25.23
2022-08-29T06:03:31.724Z,25.38
2022-08-29T06:04:34.002Z,25.22
2022-08-29T06:05:36.353Z,25.06
2022-08-29T06:06:41.400Z,25.04
2022-08-29T06:07:45.641Z,25.33
2022-08-29T06:08:48.019Z,25.89
2022-08-29T06:09:53.146Z,26.00
2022-08-29T06:10:55.244Z,25.95
2022-08-29T06:11:58.598Z,26.40
2022-08-29T06:13:00.666Z,26.42
2022-08-29T06:14:02.976Z,26.67
2022-08-29T06:15:06.308Z,27.16
2022-08-29T06:16:12.604Z,26.98
2022-08-29T06:17:14.778Z,26.97
2022-08-29T06:18:17.095Z,27.03
2022-08-29T06:19:19.799Z,26.51
2022-08-29T06:20:21.954Z,26.67
2022-08-29T06:21:24.325Z,26.96
2022-08-29T06:22:26.570Z,26.86
2022-08-29T06:23:28.632Z,27.12
2022-08-29T06:24:33.473Z,27.57
2022-08-29T06:25:39.607Z,27.79
2022-08-29T06:26:45.202Z,27.85
2022-08-29T06:27:47.419Z,28.21
2022-08-29T06:28:50.255Z,28.17
2022-08-29T06:29:52.488Z,28.13
2022-08-29T06:30:54.711Z,28.31
2022-08-29T06:31:58.036Z,28.41
2022-08-29T06:33:01.298Z,28.12
2022-08-29T06:34:05.439Z,28.22
2022-08-29T06:35:07.972Z,28.19
2022-08-29T06:36:10.859Z,28.23
2022-08-29T06:37:13.119Z,28.02
2022-08-29T06:38:15.840Z,27.96
2022-08-29T06:39:19.708Z,27.70
2022-08-29T06:40:21.924Z,27.94
2022-08-29T06:41:25.218Z,27.69
2022-08-29T06:42:28.626Z,27.19
2022-08-29T06:43:31.306Z,26.72
2022-08-29T06:44:33.749Z,26.70
2022-08-29T06:45:40.922Z,26.69
2022-08-29T06:46:47.482Z,26.70
2022-08-29T06:47:49.535Z,26.89
2022-08-29T06:48:52.379Z,26.54
2022-08-29T06:49:54.479Z,26.68
2022-08-29T06:50:58.042Z,26.72
2022-08-29T06:52:00.416Z,26.48
2022-08-29T06:53:26.132Z,26.91
2022-08-29T06:54:29.616Z,26.36
2022-08-29T06:55:31.864Z,26.35
2022-08-29T06:56:36.559Z,26.53
2022-08-29T06:57:44.608Z,26.73
2022-08-29T06:58:46.848Z,26.59
2022-08-29T06:59:48.902Z,26.50
2022-08-29T07:00:51.059Z,26.60
2022-08-29T07:01:55.478Z,26.43
2022-08-29T07:02:58.193Z,26.49
2022-08-29T07:04:00.671Z,26.60
2022-08-29T07:05:04.923Z,26.48
2022-08-29T07:06:07.634Z,27.23
2022-08-29T07:07:10.259Z,27.57
2022-08-29T07:08:12.648Z,27.96
2022-08-29T07:09:14.872Z,27.82
2022-08-29T07:10:22.317Z,27.96
2022-08-29T07:11:27.183Z,28.31
2022-08-29T07:12:29.661Z,28.89
2022-08-29T07:13:35.378Z,29.12
2022-08-29T07:14:37.428Z,29.05
2022-08-29T07:15:39.497Z,29.28
2022-08-29T07:16:42.179Z,29.50
2022-08-29T07:17:44.226Z,29.35
2022-08-29T07:18:47.304Z,29.85
2022-08-29T07:19:52.315Z,29.47
2022-08-29T07:20:56.833Z,30.01
2022-08-29T07:21:59.809Z,30.37
2022-08-29T07:23:02.267Z,30.46
2022-08-29T07:24:07.608Z,30.69
2022-08-29T07:25:19.905Z,30.30
2022-08-29T07:26:28.856Z,29.82
2022-08-29T07:27:30.979Z,30.11
2022-08-29T07:28:35.080Z,30.26
2022-08-29T07:29:40.600Z,29.90
2022-08-29T07:30:45.069Z,29.69
2022-08-29T07:31:48.201Z,30.19
2022-08-29T07:32:51.087Z,31.08
2022-08-29T07:33:59.691Z,30.78
2022-08-29T07:35:07.768Z,30.66
2022-08-29T07:36:12.508Z,31.30
2022-08-29T07:37:14.878Z,31.06
2022-08-29T07:38:17.117Z,31.81
2022-08-29T07:39:20.026Z,31.31
2022-08-29T07:40:22.682Z,31.39
2022-08-29T07:41:25.802Z,30.62
2022-08-29T07:42:28.227Z,30.54
2022-08-29T07:43:30.634Z,30.56
2022-08-29T07:44:34.569Z,30.91
2022-08-29T07:45:42.751Z,31.21
2022-08-29T07:46:47.129Z,31.35
2022-08-29T07:47:49.446Z,31.36
2022-08-29T07:48:52.921Z,31.21
2022-08-29T07:49:55.284Z,31.68
2022-08-29T07:50:57.349Z,32.13
2022-08-29T07:52:00.624Z,32.54
2022-08-29T07:53:02.698Z,32.65
2022-08-29T07:54:06.946Z,32.67
2022-08-29T07:55:09.956Z,33.22
2022-08-29T07:56:16.445Z,31.72
2022-08-29T07:57:18.882Z,31.82
2022-08-29T07:58:24.006Z,31.71
2022-08-29T07:59:26.379Z,31.54
2022-08-29T08:00:30.793Z,31.82
2022-08-29T08:01:33.210Z,31.04
2022-08-29T08:02:35.787Z,31.97
2022-08-29T08:03:42.749Z,31.44
2022-08-29T08:04:45.323Z,31.61
2022-08-29T08:05:47.479Z,32.02
2022-08-29T08:06:49.876Z,31.26
2022-08-29T08:07:55.588Z,31.30
2022-08-29T08:09:01.851Z,31.66
2022-08-29T08:10:04.679Z,31.47
2022-08-29T08:11:08.850Z,31.76
2022-08-29T08:12:11.099Z,31.70
2022-08-29T08:13:13.261Z,31.42
2022-08-29T08:14:15.511Z,31.75
2022-08-29T08:15:18.471Z,31.75
2022-08-29T08:16:23.576Z,32.28
2022-08-29T08:17:26.183Z,32.07
2022-08-29T08:18:29.996Z,31.85
2022-08-29T08:19:32.661Z,31.61
2022-08-29T08:20:35.327Z,31.83
2022-08-29T08:21:38.095Z,31.42
2022-08-29T08:22:47.801Z,31.20
2022-08-29T08:23:50.301Z,31.92
2022-08-29T08:24:52.886Z,31.22
2022-08-29T08:25:55.085Z,31.58
2022-08-29T08:26:57.178Z,31.86
2022-08-29T08:28:01.701Z,31.20
2022-08-29T08:29:04.644Z,31.18
2022-08-29T08:30:07.372Z,30.78
2022-08-29T08:31:11.983Z,30.33
2022-08-29T08:32:16.882Z,30.12
2022-08-29T08:33:19.046Z,30.02
2022-08-29T08:34:21.488Z,30.72
2022-08-29T08:35:23.925Z,31.14
2022-08-29T08:36:31.360Z,31.07
2022-08-29T08:37:33.806Z,31.20
2022-08-29T08:38:39.351Z,30.94
2022-08-29T08:39:42.277Z,30.69
2022-08-29T08:40:50.849Z,30.55
2022-08-29T08:42:00.616Z,30.06
2022-08-29T08:43:03.835Z,30.28
2022-08-29T08:44:25.624Z,29.81
2022-08-29T08:45:48.039Z,30.79
2022-08-29T08:46:58.722Z,30.84
2022-08-29T08:48:10.388Z,30.76
2022-08-29T08:49:20.360Z,30.22
2022-08-29T08:50:42.585Z,30.41
2022-08-29T08:51:53.778Z,30.41
2022-08-29T08:53:00.850Z,30.11
2022-08-29T08:54:07.951Z,30.04
2022-08-29T08:55:26.387Z,29.80
2022-08-29T08:56:34.656Z,29.98
2022-08-29T08:57:51.664Z,30.08
2022-08-29T08:59:23.638Z,30.05
2022-08-29T09:00:27.412Z,30.19
2022-08-29T09:01:39.645Z,30.00
2022-08-29T09:03:06.948Z,29.35
2022-08-29T09:04:32.460Z,28.97
2022-08-29T09:06:15.895Z,29.03
2022-08-29T09:08:05.047Z,29.09
2022-08-29T09:09:33.758Z,29.03
2022-08-29T09:10:58.565Z,29.14
2022-08-29T09:12:21.761Z,29.15
2022-08-29T09:13:30.983Z,29.17
2022-08-29T09:14:45.375Z,28.72
2022-08-29T09:15:54.249Z,28.54
2022-08-29T09:17:00.630Z,28.24
2022-08-29T09:18:08.610Z,28.28
2022-08-29T09:19:17.227Z,28.13
2022-08-29T09:20:28.999Z,28.44
2022-08-29T09:21:41.627Z,28.30
2022-08-29T09:22:50.299Z,28.17
2022-08-29T09:23:59.850Z,28.23
2022-08-29T09:25:05.194Z,28.32
2022-08-29T09:26:07.587Z,28.26
2022-08-29T09:27:19.328Z,28.27
2022-08-29T09:28:21.929Z,27.85
2022-08-29T09:29:28.500Z,28.15
2022-08-29T09:30:33.765Z,28.23
2022-08-29T09:31:36.316Z,28.49
2022-08-29T09:33:00.963Z,28.82
2022-08-29T09:34:07.876Z,29.12
2022-08-29T09:35:29.266Z,28.49
2022-08-29T09:36:41.030Z,28.54
2022-08-29T09:37:43.126Z,28.78
2022-08-29T09:38:45.417Z,28.82
2022-08-29T09:40:01.606Z,28.92
2022-08-29T09:41:08.242Z,29.15
2022-08-29T09:42:13.714Z,29.02
2022-08-29T09:43:29.067Z,29.09
2022-08-29T09:44:33.569Z,29.09
2022-08-29T09:45:35.979Z,29.28
2022-08-29T09:46:38.487Z,29.43
2022-08-29T09:47:40.779Z,28.71
2022-08-29T09:48:49.342Z,28.80
2022-08-29T09:50:27.456Z,28.52
2022-08-29T09:51:41.934Z,28.99
2022-08-29T09:52:59.434Z,29.15
2022-08-29T09:54:28.960Z,29.07
2022-08-29T09:55:35.369Z,28.83
2022-08-29T09:56:41.098Z,28.77
2022-08-29T09:58:10.528Z,28.68
2022-08-29T09:59:28.898Z,28.37
2022-08-29T10:00:39.034Z,28.27
2022-08-29T10:01:43.687Z,28.35
2022-08-29T10:02:58.961Z,28.57
2022-08-29T10:04:04.087Z,28.75
2022-08-29T10:05:13.182Z,28.86
2022-08-29T10:06:20.296Z,28.85
2022-08-29T10:07:25.320Z,28.87
2022-08-29T10:08:36.716Z,28.59
2022-08-29T10:09:39.083Z,28.52
2022-08-29T10:10:52.499Z,28.37
2022-08-29T10:12:08.442Z,28.33
2022-08-29T10:13:23.287Z,28.27
2022-08-29T10:14:54.746Z,28.21
2022-08-29T10:16:36.002Z,28.11
2022-08-29T10:18:21.415Z,28.06
2022-08-29T10:19:33.120Z,27.93
2022-08-29T10:20:40.869Z,28.04
2022-08-29T10:22:04.107Z,27.92
2022-08-29T10:23:39.575Z,27.64
2022-08-29T10:25:08.974Z,27.73
2022-08-29T10:27:00.874Z,27.69
2022-08-29T10:28:06.017Z,27.83
2022-08-29T10:29:14.630Z,27.99
2022-08-29T10:30:20.554Z,28.06
2022-08-29T10:31:39.775Z,28.20
2022-08-29T10:32:57.966Z,28.15
2022-08-29T10:34:12.147Z,28.13
2022-08-29T10:35:23.095Z,28.18
2022-08-29T10:36:33.698Z,28.38
2022-08-29T10:37:51.948Z,28.29
2022-08-29T10:39:13.968Z,28.00
2022-08-29T10:40:43.562Z,27.99
2022-08-29T10:42:09.959Z,27.89
2022-08-29T10:43:20.092Z,27.85
2022-08-29T10:44:24.858Z,27.70
2022-08-29T10:45:45.305Z,27.63
2022-08-29T10:47:00.425Z,27.70
2022-08-29T10:48:16.178Z,27.65
2022-08-29T10:49:33.801Z,27.67
2022-08-29T10:50:44.558Z,27.54
2022-08-29T10:51:57.865Z,27.56
2022-08-29T10:53:02.757Z,27.59
2022-08-29T10:54:31.595Z,27.44
2022-08-29T10:55:39.862Z,27.56
2022-08-29T10:56:46.640Z,27.41
2022-08-29T10:58:03.756Z,27.39
2022-08-29T10:59:19.005Z,27.42
2022-08-29T11:00:40.468Z,27.39
2022-08-29T11:01:59.394Z,27.57
2022-08-29T11:03:23.155Z,27.49
2022-08-29T11:04:38.310Z,27.52
2022-08-29T11:05:49.181Z,27.40
2022-08-29T11:07:04.790Z,27.35
2022-08-29T11:08:33.626Z,27.42
2022-08-29T11:09:57.497Z,27.41
2022-08-29T11:11:01.644Z,27.45
2022-08-29T11:12:31.146Z,27.51
2022-08-29T11:13:42.453Z,27.26
2022-08-29T11:14:57.021Z,27.35
2022-08-29T11:16:07.514Z,27.36
2022-08-29T11:17:14.036Z,27.44
2022-08-29T11:18:29.065Z,27.65
2022-08-29T11:19:39.359Z,27.91
2022-08-29T11:20:48.038Z,27.98
2022-08-29T11:21:55.512Z,27.69
2022-08-29T11:23:27.780Z,27.77
2022-08-29T11:24:34.867Z,27.89
2022-08-29T11:25:42.188Z,27.94
2022-08-29T11:26:44.222Z,28.15
2022-08-29T11:28:12.315Z,27.69
2022-08-29T11:29:36.549Z,27.87
2022-08-29T11:30:55.989Z,27.76
2022-08-29T11:32:06.551Z,27.76
2022-08-29T11:33:19.391Z,27.62
2022-08-29T11:34:45.946Z,27.46
2022-08-29T11:36:12.351Z,27.51
2022-08-29T11:37:40.026Z,27.43
2022-08-29T11:38:47.886Z,27.67
2022-08-29T11:40:05.302Z,27.55
2022-08-29T11:41:27.531Z,27.46
2022-08-29T11:42:52.691Z,27.42
2022-08-29T11:44:11.896Z,27.43
2022-08-29T11:45:36.725Z,27.40
2022-08-29T11:46:52.898Z,27.52
2022-08-29T11:48:01.315Z,27.13
2022-08-29T11:49:21.818Z,27.11
2022-08-29T11:50:35.666Z,27.04
2022-08-29T11:51:41.987Z,27.16
2022-08-29T11:52:57.352Z,27.23
2022-08-29T11:54:25.417Z,27.39
2022-08-29T11:55:34.767Z,27.38
2022-08-29T11:56:37.124Z,27.29
2022-08-29T11:57:47.636Z,27.33
2022-08-29T11:58:58.073Z,27.36
2022-08-29T12:00:01.517Z,27.44
2022-08-29T12:01:32.241Z,27.41
2022-08-29T12:02:35.038Z,27.40
2022-08-29T12:03:37.438Z,27.45
2022-08-29T12:04:58.480Z,27.43
2022-08-29T12:06:35.348Z,27.48
2022-08-29T12:07:49.213Z,27.39
2022-08-29T12:09:13.215Z,27.42
2022-08-29T12:10:26.766Z,27.30
2022-08-29T12:11:59.811Z,27.28
2022-08-29T12:13:07.097Z,27.24
2022-08-29T12:14:09.306Z,27.41
2022-08-29T12:15:49.587Z,27.20
2022-08-29T12:16:53.845Z,27.21
2022-08-29T12:18:03.283Z,27.16
2022-08-29T12:19:08.316Z,27.19
2022-08-29T12:20:13.912Z,27.22
2022-08-29T12:21:33.823Z,27.07
2022-08-29T12:23:00.412Z,27.03
2022-08-29T12:24:04.645Z,27.03
2022-08-29T12:25:27.352Z,26.91
2022-08-29T12:26:45.630Z,26.69
2022-08-29T12:27:56.379Z,26.84
2022-08-29T12:29:00.608Z,26.77
2022-08-29T12:30:02.953Z,26.73
2022-08-29T12:31:20.331Z,26.78
2022-08-29T12:32:49.404Z,26.80
2022-08-29T12:34:03.492Z,26.83
2022-08-29T12:35:28.290Z,26.74
2022-08-29T12:36:53.022Z,26.61
2022-08-29T12:38:13.027Z,26.49
2022-08-29T12:39:44.981Z,26.53
2022-08-29T12:40:58.860Z,26.56
2022-08-29T12:42:09.711Z,26.56
2022-08-29T12:43:25.232Z,26.64
2022-08-29T12:44:34.297Z,26.70
2022-08-29T12:45:36.839Z,26.69
2022-08-29T12:46:43.386Z,26.58
2022-08-29T12:47:50.914Z,26.59
2022-08-29T12:49:18.921Z,26.61
2022-08-29T12:50:37.014Z,26.52
2022-08-29T12:51:42.578Z,26.58
2022-08-29T12:53:00.005Z,26.53
2022-08-29T12:54:02.512Z,26.63
2022-08-29T12:55:33.972Z,26.63
2022-08-29T12:56:43.051Z,26.63
2022-08-29T12:57:47.579Z,26.56
2022-08-29T12:58:52.672Z,26.56
2022-08-29T12:59:56.367Z,26.62
2022-08-29T13:00:58.785Z,26.69
2022-08-29T13:02:01.997Z,26.84
2022-08-29T13:03:09.647Z,26.86
2022-08-29T13:04:20.133Z,26.80
2022-08-29T13:05:28.854Z,26.84
2022-08-29T13:06:34.008Z,26.82
2022-08-29T13:07:36.413Z,26.86
2022-08-29T13:08:38.553Z,26.96
2022-08-29T13:09:49.210Z,26.95
2022-08-29T13:11:03.651Z,26.90
2022-08-29T13:12:15.441Z,26.91
2022-08-29T13:13:21.357Z,26.75
2022-08-29T13:14:24.032Z,26.70
2022-08-29T13:15:30.918Z,26.78
2022-08-29T13:16:35.239Z,26.76
2022-08-29T13:17:40.360Z,26.61
2022-08-29T13:19:00.270Z,26.54
2022-08-29T13:20:40.378Z,26.53
2022-08-29T13:21:42.623Z,26.36
2022-08-29T13:22:44.772Z,26.36
2022-08-29T13:24:00.263Z,26.31
2022-08-29T13:25:05.286Z,26.30
2022-08-29T13:26:29.219Z,26.32
2022-08-29T13:27:31.254Z,26.28
2022-08-29T13:28:40.760Z,26.34
2022-08-29T13:29:43.172Z,26.29
2022-08-29T13:30:48.915Z,26.30
2022-08-29T13:32:12.478Z,26.24
2022-08-29T13:33:35.137Z,26.26
2022-08-29T13:34:37.923Z,26.26
2022-08-29T13:35:44.061Z,26.29
2022-08-29T13:37:00.403Z,26.33
2022-08-29T13:38:21.433Z,26.37
2022-08-29T13:39:29.540Z,26.38
2022-08-29T13:40:42.008Z,26.39
2022-08-29T13:41:47.381Z,26.37
2022-08-29T13:42:49.499Z,26.38
2022-08-29T13:43:52.017Z,26.37
2022-08-29T13:45:08.657Z,26.36
2022-08-29T13:46:15.185Z,26.38
2022-08-29T13:47:25.533Z,26.31
2022-08-29T13:48:27.748Z,26.37
2022-08-29T13:49:32.962Z,26.44
2022-08-29T13:50:35.234Z,26.40
2022-08-29T13:51:37.516Z,26.46
2022-08-29T13:52:39.664Z,26.51
2022-08-29T13:53:45.621Z,26.53
2022-08-29T13:54:48.114Z,26.43
2022-08-29T13:55:51.753Z,26.50
2022-08-29T13:56:56.509Z,26.42
2022-08-29T13:57:58.843Z,26.36
2022-08-29T13:59:01.724Z,26.37
2022-08-29T14:00:07.361Z,26.33
2022-08-29T14:02:34.672Z,26.31
2022-08-29T14:03:38.313Z,26.27
2022-08-29T14:04:49.482Z,26.34
2022-08-29T14:05:56.798Z,26.31
2022-08-29T14:07:00.299Z,26.33
2022-08-29T14:08:02.885Z,26.29
2022-08-29T14:09:05.284Z,26.31
2022-08-29T14:10:08.226Z,26.24
2022-08-29T14:11:11.302Z,26.26
2022-08-29T14:12:14.813Z,26.25
2022-08-29T14:13:17.387Z,26.26
2022-08-29T14:14:19.559Z,26.15
2022-08-29T14:15:21.715Z,26.19
2022-08-29T14:16:27.259Z,26.20
2022-08-29T14:17:29.421Z,26.15
2022-08-29T14:18:32.711Z,26.10
2022-08-29T14:19:36.057Z,26.00
2022-08-29T14:20:39.168Z,25.95
2022-08-29T14:21:41.243Z,25.98
2022-08-29T14:22:43.611Z,26.03
2022-08-29T14:23:46.455Z,26.05
2022-08-29T14:24:53.072Z,26.07
2022-08-29T14:25:55.479Z,26.00
2022-08-29T14:27:01.256Z,26.04
2022-08-29T14:28:04.750Z,26.04
2022-08-29T14:29:07.657Z,26.01